createdAt,value
2018-04-04T00:00:59.467Z,0.00
2018-04-04T00:01:59.605Z,0.00
2018-04-04T00:02:59.752Z,0.00
2018-04-04T00:03:59.887Z,0.00
2018-04-04T00:05:00.023Z,0.00
2018-04-04T00:06:00.161Z,0.00
2018-04-04T00:07:00.302Z,0.00
2018-04-04T00:08:00.440Z,0.00
2018-04-04T00:09:01.347Z,0.00
2018-04-04T00:11:33.254Z,0.00
2018-04-04T00:12:33.392Z,0.00
2018-04-04T00:13:33.529Z,0.00
2018-04-04T00:14:33.667Z,0.00
2018-04-04T00:15:33.802Z,0.00
2018-04-04T00:16:33.936Z,0.00
2018-04-04T00:17:34.783Z,0.00
2018-04-04T00:18:34.220Z,0.00
2018-04-04T00:19:34.366Z,0.00
2018-04-04T00:20:34.497Z,0.00
2018-04-04T00:21:34.631Z,0.00
2018-04-04T00:22:34.801Z,0.00
2018-04-04T00:23:34.948Z,0.00
2018-04-04T00:24:35.095Z,0.00
2018-04-04T00:25:35.233Z,0.00
2018-04-04T00:26:35.394Z,0.00
2018-04-04T00:27:35.646Z,0.00
2018-04-04T00:28:35.669Z,0.00
2018-04-04T00:29:35.804Z,0.00
2018-04-04T00:30:35.990Z,0.00
2018-04-04T00:31:36.106Z,0.00
2018-04-04T00:32:36.241Z,0.00
2018-04-04T00:33:36.375Z,0.00
2018-04-04T00:34:36.552Z,0.00
2018-04-04T00:35:36.642Z,0.00
2018-04-04T00:36:36.796Z,0.00
2018-04-04T00:37:36.946Z,0.00
2018-04-04T00:38:37.074Z,0.00
2018-04-04T00:39:37.279Z,0.00
2018-04-04T00:40:37.307Z,0.00
2018-04-04T00:41:37.439Z,0.00
2018-04-04T00:42:37.582Z,0.00
2018-04-04T00:43:37.714Z,0.00
2018-04-04T00:44:37.861Z,0.00
2018-04-04T00:45:37.991Z,0.00
2018-04-04T00:46:38.129Z,0.00
2018-04-04T00:47:38.267Z,0.00
2018-04-04T00:48:38.422Z,0.00
2018-04-04T00:49:38.563Z,0.00
2018-04-04T00:50:38.678Z,0.00
2018-04-04T00:51:38.817Z,0.00
2018-04-04T00:52:38.962Z,0.00
2018-04-04T00:53:39.093Z,0.00
2018-04-04T00:54:39.230Z,0.00
2018-04-04T00:55:39.365Z,0.00
2018-04-04T00:56:39.500Z,0.00
2018-04-04T00:57:39.644Z,0.00
2018-04-04T00:58:39.785Z,0.00
2018-04-04T00:59:39.916Z,0.00
2018-04-04T01:00:40.053Z,0.00
2018-04-04T01:01:40.187Z,0.00
2018-04-04T01:02:40.331Z,0.00
2018-04-04T01:03:40.462Z,0.00
2018-04-04T01:04:40.600Z,0.00
2018-04-04T01:05:40.811Z,0.00
2018-04-04T01:06:40.833Z,0.00
2018-04-04T01:07:40.972Z,0.00
2018-04-04T01:08:41.108Z,0.00
2018-04-04T01:09:41.257Z,0.00
2018-04-04T01:10:41.391Z,0.00
2018-04-04T01:11:41.529Z,0.00
2018-04-04T01:12:41.667Z,0.00
2018-04-04T01:13:41.803Z,0.00
2018-04-04T01:14:41.942Z,0.00
2018-04-04T01:15:42.090Z,0.00
2018-04-04T01:16:42.222Z,0.00
2018-04-04T01:17:42.354Z,0.00
2018-04-04T01:18:42.507Z,0.00
2018-04-04T01:19:42.632Z,0.00
2018-04-04T01:20:42.767Z,0.00
2018-04-04T01:21:42.904Z,0.00
2018-04-04T01:22:43.050Z,0.00
2018-04-04T01:23:43.177Z,0.00
2018-04-04T01:24:43.315Z,0.00
2018-04-04T01:25:43.460Z,0.00
2018-04-04T01:26:43.596Z,0.00
2018-04-04T01:27:43.734Z,0.00
2018-04-04T01:28:43.865Z,0.00
2018-04-04T01:29:44.005Z,0.00
2018-04-04T01:30:44.167Z,0.00
2018-04-04T01:31:44.299Z,0.00
2018-04-04T01:32:44.445Z,0.00
2018-04-04T01:33:44.585Z,0.00
2018-04-04T01:34:44.777Z,0.00
2018-04-04T01:35:44.913Z,0.00
2018-04-04T01:36:45.057Z,0.00
2018-04-04T01:37:45.196Z,0.00
2018-04-04T01:38:45.336Z,0.00
2018-04-04T01:39:45.469Z,0.00
2018-04-04T01:40:45.608Z,0.00
2018-04-04T01:41:45.745Z,0.00
2018-04-04T01:42:45.899Z,0.00
2018-04-04T01:43:46.038Z,0.00
2018-04-04T01:44:46.167Z,0.00
2018-04-04T01:45:46.306Z,0.00
2018-04-04T01:46:46.524Z,0.00
2018-04-04T01:47:46.595Z,0.00
2018-04-04T01:48:46.733Z,0.00
2018-04-04T01:49:46.871Z,0.00
2018-04-04T01:50:47.036Z,0.00
2018-04-04T01:51:47.166Z,0.00
2018-04-04T01:52:47.368Z,0.00
2018-04-04T01:53:47.530Z,0.00
2018-04-04T01:54:47.672Z,0.00
2018-04-04T01:55:47.809Z,0.00
2018-04-04T01:56:47.937Z,0.00
2018-04-04T01:57:48.095Z,0.00
2018-04-04T01:58:48.226Z,0.00
2018-04-04T01:59:48.361Z,0.00
2018-04-04T02:00:48.515Z,0.00
2018-04-04T02:01:48.769Z,0.00
2018-04-04T02:02:48.770Z,0.00
2018-04-04T02:03:48.902Z,0.00
2018-04-04T02:04:49.055Z,0.00
2018-04-04T02:05:49.187Z,0.00
2018-04-04T02:06:49.330Z,0.00
2018-04-04T02:07:49.494Z,0.00
2018-04-04T02:08:49.640Z,0.00
2018-04-04T02:09:49.772Z,0.00
2018-04-04T02:10:49.935Z,0.00
2018-04-04T02:11:50.053Z,0.00
2018-04-04T02:12:50.186Z,0.00
2018-04-04T02:13:50.326Z,0.00
2018-04-04T02:14:50.486Z,0.00
2018-04-04T02:15:50.620Z,0.00
2018-04-04T02:16:50.755Z,0.00
2018-04-04T02:17:50.889Z,0.00
2018-04-04T02:18:51.024Z,0.00
2018-04-04T02:19:51.154Z,0.00
2018-04-04T02:20:51.288Z,0.00
2018-04-04T02:21:51.425Z,0.00
2018-04-04T02:22:51.558Z,0.00
2018-04-04T02:23:51.699Z,0.00
2018-04-04T02:24:51.835Z,0.00
2018-04-04T02:25:51.974Z,0.00
2018-04-04T02:26:52.110Z,0.00
2018-04-04T02:27:52.252Z,0.00
2018-04-04T02:28:52.386Z,0.00
2018-04-04T02:29:52.517Z,0.00
2018-04-04T02:30:52.659Z,0.00
2018-04-04T02:31:52.795Z,0.00
2018-04-04T02:32:52.965Z,0.00
2018-04-04T02:33:53.110Z,0.00
2018-04-04T02:34:53.243Z,0.00
2018-04-04T02:35:53.384Z,0.00
2018-04-04T02:36:53.528Z,0.00
2018-04-04T02:37:53.659Z,0.00
2018-04-04T02:38:53.802Z,0.00
2018-04-04T02:39:53.941Z,0.00
2018-04-04T02:40:54.100Z,0.00
2018-04-04T02:41:54.232Z,0.00
2018-04-04T02:42:54.368Z,0.00
2018-04-04T02:43:54.505Z,0.00
2018-04-04T02:44:54.649Z,0.00
2018-04-04T02:45:54.787Z,0.00
2018-04-04T02:46:54.925Z,0.00
2018-04-04T02:47:55.079Z,0.00
2018-04-04T02:48:55.214Z,0.00
2018-04-04T02:49:55.354Z,0.00
2018-04-04T02:50:55.487Z,0.00
2018-04-04T02:51:55.645Z,0.00
2018-04-04T02:52:55.786Z,0.00
2018-04-04T02:53:55.919Z,0.00
2018-04-04T02:54:56.048Z,0.00
2018-04-04T02:55:56.188Z,0.00
2018-04-04T02:56:56.321Z,0.00
2018-04-04T02:57:56.469Z,0.00
2018-04-04T02:58:56.599Z,0.00
2018-04-04T02:59:56.742Z,0.00
2018-04-04T03:00:56.878Z,0.00
2018-04-04T03:01:57.014Z,0.00
2018-04-04T03:02:57.145Z,0.00
2018-04-04T03:03:57.285Z,0.00
2018-04-04T03:04:57.421Z,0.00
2018-04-04T03:05:57.560Z,0.00
2018-04-04T03:06:57.702Z,0.00
2018-04-04T03:07:57.830Z,0.00
2018-04-04T03:08:57.975Z,0.00
2018-04-04T03:09:58.123Z,0.00
2018-04-04T03:10:58.256Z,0.00
2018-04-04T03:11:58.396Z,0.00
2018-04-04T03:12:58.538Z,0.00
2018-04-04T03:13:58.678Z,0.00
2018-04-04T03:14:58.820Z,0.00
2018-04-04T03:15:58.957Z,0.00
2018-04-04T03:16:59.094Z,0.00
2018-04-04T03:17:59.263Z,0.00
2018-04-04T03:18:59.394Z,0.00
2018-04-04T03:19:59.527Z,0.00
2018-04-04T03:20:59.662Z,0.00
2018-04-04T03:22:00.409Z,0.00
2018-04-04T03:22:59.994Z,0.00
2018-04-04T03:24:00.134Z,0.00
2018-04-04T03:25:00.291Z,0.00
2018-04-04T03:26:00.462Z,0.00
2018-04-04T03:27:00.615Z,0.00
2018-04-04T03:28:00.767Z,0.00
2018-04-04T03:29:00.896Z,0.00
2018-04-04T03:30:01.027Z,0.00
2018-04-04T03:31:01.164Z,0.00
2018-04-04T03:32:01.301Z,0.00
2018-04-04T03:33:01.445Z,0.00
2018-04-04T03:34:01.582Z,0.00
2018-04-04T03:35:01.743Z,0.00
2018-04-04T03:36:01.865Z,0.00
2018-04-04T03:37:01.994Z,0.00
2018-04-04T03:38:02.127Z,0.00
2018-04-04T03:39:02.288Z,0.00
2018-04-04T03:40:02.413Z,0.00
2018-04-04T03:41:02.559Z,0.00
2018-04-04T03:42:02.754Z,0.00
2018-04-04T03:43:02.854Z,0.00
2018-04-04T03:44:02.986Z,0.00
2018-04-04T03:45:03.123Z,0.00
2018-04-04T03:46:03.253Z,0.00
2018-04-04T03:47:03.525Z,0.00
2018-04-04T03:48:03.542Z,0.00
2018-04-04T03:49:03.677Z,0.00
2018-04-04T03:50:03.814Z,0.00
2018-04-04T03:51:03.950Z,0.00
2018-04-04T03:52:04.090Z,0.00
2018-04-04T03:53:04.227Z,0.00
2018-04-04T03:54:04.367Z,0.00
2018-04-04T03:55:04.514Z,0.00
2018-04-04T03:56:04.876Z,0.00
2018-04-04T03:57:04.797Z,0.00
2018-04-04T03:58:04.928Z,0.00
2018-04-04T03:59:05.065Z,0.00
2018-04-04T04:00:05.198Z,0.00
2018-04-04T04:01:05.345Z,0.00
2018-04-04T04:02:05.477Z,0.00
2018-04-04T04:03:05.735Z,0.00
2018-04-04T04:04:05.849Z,0.00
2018-04-04T04:05:05.954Z,0.00
2018-04-04T04:06:06.095Z,0.00
2018-04-04T04:07:06.229Z,0.00
2018-04-04T04:08:06.383Z,0.00
2018-04-04T04:09:06.542Z,0.00
2018-04-04T04:10:06.671Z,0.00
2018-04-04T04:11:06.797Z,0.00
2018-04-04T04:12:06.928Z,0.00
2018-04-04T04:13:07.073Z,0.00
2018-04-04T04:14:07.232Z,0.00
2018-04-04T04:15:07.366Z,0.00
2018-04-04T04:16:07.524Z,0.00
2018-04-04T04:17:07.655Z,0.00
2018-04-04T04:18:07.815Z,0.00
2018-04-04T04:19:07.948Z,0.00
2018-04-04T04:20:08.081Z,0.00
2018-04-04T04:21:08.224Z,0.00
2018-04-04T04:22:08.377Z,0.00
2018-04-04T04:23:08.512Z,0.00
2018-04-04T04:24:08.646Z,0.00
2018-04-04T04:25:08.778Z,0.00
2018-04-04T04:26:09.052Z,4.00
2018-04-04T04:27:09.107Z,4.00
2018-04-04T04:28:09.243Z,0.00
2018-04-04T04:29:09.408Z,4.00
2018-04-04T04:30:09.537Z,4.00
2018-04-04T04:31:09.677Z,4.00
2018-04-04T04:32:09.814Z,8.00
2018-04-04T04:33:09.959Z,4.00
2018-04-04T04:34:10.091Z,8.00
2018-04-04T04:35:10.228Z,8.00
2018-04-04T04:36:10.375Z,12.00
2018-04-04T04:37:10.513Z,12.00
2018-04-04T04:38:10.650Z,16.00
2018-04-04T04:39:10.803Z,20.00
2018-04-04T04:40:10.964Z,24.00
2018-04-04T04:41:11.172Z,24.00
2018-04-04T04:42:11.187Z,28.00
2018-04-04T04:43:11.321Z,36.00
2018-04-04T04:44:11.472Z,40.00
2018-04-04T04:45:11.600Z,48.00
2018-04-04T04:46:11.732Z,52.00
2018-04-04T04:47:11.866Z,60.00
2018-04-04T04:48:12.002Z,64.00
2018-04-04T04:49:12.142Z,72.00
2018-04-04T04:50:12.276Z,80.00
2018-04-04T04:51:12.409Z,88.00
2018-04-04T04:52:12.552Z,96.00
2018-04-04T04:53:12.687Z,108.00
2018-04-04T04:54:12.821Z,120.00
2018-04-04T04:55:12.961Z,128.00
2018-04-04T04:56:13.107Z,140.00
2018-04-04T04:57:13.241Z,152.00
2018-04-04T04:58:13.374Z,164.00
2018-04-04T04:59:13.509Z,176.00
2018-04-04T05:00:13.650Z,188.00
2018-04-04T05:01:13.779Z,200.00
2018-04-04T05:02:13.924Z,216.00
2018-04-04T05:03:14.050Z,228.00
2018-04-04T05:04:14.194Z,244.00
2018-04-04T05:05:14.330Z,256.00
2018-04-04T05:06:14.464Z,272.00
2018-04-04T05:07:14.603Z,288.00
2018-04-04T05:08:14.740Z,304.00
2018-04-04T05:09:14.881Z,320.00
2018-04-04T05:10:15.019Z,336.00
2018-04-04T05:11:15.154Z,356.00
2018-04-04T05:12:15.295Z,368.00
2018-04-04T05:13:15.427Z,388.00
2018-04-04T05:14:15.568Z,408.00
2018-04-04T05:15:15.712Z,428.00
2018-04-04T05:16:15.847Z,440.00
2018-04-04T05:17:15.979Z,460.00
2018-04-04T05:18:16.122Z,484.00
2018-04-04T05:19:16.265Z,512.00
2018-04-04T05:20:16.393Z,532.00
2018-04-04T05:21:16.537Z,568.00
2018-04-04T05:22:16.681Z,592.00
2018-04-04T05:23:16.823Z,608.00
2018-04-04T05:24:16.959Z,624.00
2018-04-04T05:25:17.096Z,628.00
2018-04-04T05:26:17.231Z,636.00
2018-04-04T05:27:17.365Z,640.00
2018-04-04T05:28:17.495Z,652.00
2018-04-04T05:29:17.653Z,672.00
2018-04-04T05:30:17.787Z,692.00
2018-04-04T05:31:17.925Z,712.00
2018-04-04T05:32:18.068Z,744.00
2018-04-04T05:33:18.200Z,780.00
2018-04-04T05:34:18.326Z,816.00
2018-04-04T05:35:18.463Z,856.00
2018-04-04T05:36:18.602Z,892.00
2018-04-04T05:37:18.734Z,920.00
2018-04-04T05:38:18.873Z,936.00
2018-04-04T05:39:19.019Z,944.00
2018-04-04T05:40:19.151Z,960.00
2018-04-04T05:41:19.317Z,976.00
2018-04-04T05:42:19.479Z,1008.00
2018-04-04T05:43:19.601Z,1040.00
2018-04-04T05:44:19.733Z,1076.00
2018-04-04T05:45:19.885Z,1116.00
2018-04-04T05:46:20.018Z,1160.00
2018-04-04T05:47:20.155Z,1208.00
2018-04-04T05:48:20.287Z,1244.00
2018-04-04T05:49:20.451Z,1296.00
2018-04-04T05:50:20.582Z,1340.00
2018-04-04T05:51:20.720Z,1376.00
2018-04-04T05:52:20.855Z,1408.00
2018-04-04T05:53:21.026Z,1428.00
2018-04-04T05:54:21.134Z,1444.00
2018-04-04T05:55:21.269Z,1460.00
2018-04-04T05:56:21.416Z,1484.00
2018-04-04T05:57:21.554Z,1504.00
2018-04-04T05:58:21.688Z,1532.00
2018-04-04T05:59:21.873Z,1564.00
2018-04-04T06:00:21.957Z,1604.00
2018-04-04T06:01:22.096Z,1632.00
2018-04-04T06:02:22.226Z,1660.00
2018-04-04T06:03:22.367Z,1676.00
2018-04-04T06:04:22.534Z,1704.00
2018-04-04T06:05:22.660Z,1752.00
2018-04-04T06:06:22.791Z,1792.00
2018-04-04T06:07:22.934Z,1844.00
2018-04-04T06:08:23.065Z,1896.00
2018-04-04T06:09:23.200Z,1964.00
2018-04-04T06:10:23.338Z,1960.00
2018-04-04T06:11:23.478Z,2008.00
2018-04-04T06:12:23.616Z,2048.00
2018-04-04T06:13:23.753Z,2096.00
2018-04-04T06:14:23.891Z,2136.00
2018-04-04T06:15:24.029Z,2160.00
2018-04-04T06:16:24.164Z,2196.00
2018-04-04T06:17:24.300Z,2216.00
2018-04-04T06:18:24.436Z,2248.00
2018-04-04T06:19:24.582Z,2292.00
2018-04-04T06:20:25.545Z,2312.00
2018-04-04T06:21:24.888Z,2332.00
2018-04-04T06:22:25.029Z,2376.00
2018-04-04T06:23:25.172Z,2436.00
2018-04-04T06:24:25.332Z,2500.00
2018-04-04T06:25:25.466Z,2584.00
2018-04-04T06:26:25.601Z,2688.00
2018-04-04T06:27:25.742Z,2788.00
2018-04-04T06:28:25.877Z,2916.00
2018-04-04T06:29:26.013Z,2976.00
2018-04-04T06:30:26.161Z,3032.00
2018-04-04T06:31:26.302Z,3172.00
2018-04-04T06:32:26.441Z,3256.00
2018-04-04T06:33:26.575Z,3352.00
2018-04-04T06:34:26.729Z,3400.00
2018-04-04T06:35:26.856Z,3488.00
2018-04-04T06:36:26.997Z,3592.00
2018-04-04T06:37:27.137Z,3636.00
2018-04-04T06:38:27.274Z,3696.00
2018-04-04T06:39:27.456Z,3800.00
2018-04-04T06:40:27.549Z,3892.00
2018-04-04T06:41:27.686Z,3940.00
2018-04-04T06:42:27.858Z,4044.00
2018-04-04T06:43:27.982Z,3948.00
2018-04-04T06:44:28.123Z,3904.00
2018-04-04T06:45:28.267Z,3976.00
2018-04-04T06:46:28.434Z,4024.00
2018-04-04T06:47:28.566Z,3860.00
2018-04-04T06:48:28.716Z,3832.00
2018-04-04T06:49:28.848Z,3720.00
2018-04-04T06:50:29.003Z,3664.00
2018-04-04T06:51:29.138Z,3628.00
2018-04-04T06:52:29.276Z,3556.00
2018-04-04T06:53:29.428Z,3508.00
2018-04-04T06:54:29.571Z,3516.00
2018-04-04T06:55:29.706Z,3568.00
2018-04-04T06:56:29.864Z,3560.00
2018-04-04T06:57:30.001Z,3600.00
2018-04-04T06:58:30.144Z,3548.00
2018-04-04T06:59:30.274Z,3532.00
2018-04-04T07:00:30.417Z,3604.00
2018-04-04T07:01:30.554Z,3608.00
2018-04-04T07:02:30.692Z,3572.00
2018-04-04T07:03:30.828Z,3424.00
2018-04-04T07:04:30.973Z,3388.00
2018-04-04T07:05:31.110Z,3384.00
2018-04-04T07:06:31.248Z,3448.00
2018-04-04T07:07:31.545Z,3484.00
2018-04-04T07:08:31.522Z,3440.00
2018-04-04T07:09:31.656Z,3508.00
2018-04-04T07:10:31.793Z,3532.00
2018-04-04T07:11:31.926Z,3424.00
2018-04-04T07:12:32.065Z,3384.00
2018-04-04T07:13:32.202Z,3384.00
2018-04-04T07:14:32.338Z,3340.00
2018-04-04T07:15:32.481Z,3292.00
2018-04-04T07:16:32.623Z,3184.00
2018-04-04T07:17:32.760Z,3136.00
2018-04-04T07:18:32.898Z,3316.00
2018-04-04T07:19:33.073Z,3476.00
2018-04-04T07:20:33.108Z,3708.00
2018-04-04T07:21:33.240Z,3764.00
2018-04-04T07:22:33.386Z,3984.00
2018-04-04T07:23:33.524Z,4072.00
2018-04-04T07:24:33.670Z,4212.00
2018-04-04T07:25:33.807Z,4504.00
2018-04-04T07:26:33.946Z,4776.00
2018-04-04T07:27:34.098Z,4704.00
2018-04-04T07:28:34.227Z,4656.00
2018-04-04T07:29:34.379Z,4728.00
2018-04-04T07:30:34.518Z,4772.00
2018-04-04T07:31:34.674Z,4456.00
2018-04-04T07:32:34.809Z,4308.00
2018-04-04T07:33:34.945Z,4236.00
2018-04-04T07:34:35.080Z,4524.00
2018-04-04T07:35:35.273Z,4296.00
2018-04-04T07:36:35.420Z,3584.00
2018-04-04T07:37:35.566Z,3168.00
2018-04-04T07:38:35.698Z,2812.00
2018-04-04T07:39:35.864Z,2556.00
2018-04-04T07:40:35.990Z,2356.00
2018-04-04T07:41:36.130Z,2140.00
2018-04-04T07:42:36.267Z,2008.00
2018-04-04T07:43:36.418Z,1912.00
2018-04-04T07:44:36.570Z,1832.00
2018-04-04T07:45:36.706Z,1796.00
2018-04-04T07:46:36.837Z,1756.00
2018-04-04T07:47:36.974Z,1724.00
2018-04-04T07:48:37.115Z,1720.00
2018-04-04T07:49:37.249Z,1748.00
2018-04-04T07:50:37.382Z,1800.00
2018-04-04T07:51:37.548Z,1852.00
2018-04-04T07:52:37.734Z,1872.00
2018-04-04T07:53:37.862Z,1848.00
2018-04-04T07:54:38.023Z,1776.00
2018-04-04T07:55:38.184Z,1672.00
2018-04-04T07:56:38.317Z,1628.00
2018-04-04T07:57:38.485Z,1648.00
2018-04-04T07:58:38.713Z,1756.00
2018-04-04T07:59:38.705Z,1920.00
2018-04-04T08:00:38.844Z,2144.00
2018-04-04T08:01:38.984Z,2480.00
2018-04-04T08:02:39.139Z,3064.00
2018-04-04T08:03:39.324Z,3836.00
2018-04-04T08:04:39.472Z,4624.00
2018-04-04T08:05:39.616Z,5316.00
2018-04-04T08:06:39.749Z,5688.00
2018-04-04T08:07:39.886Z,5516.00
2018-04-04T08:08:40.021Z,5416.00
2018-04-04T08:09:40.166Z,4848.00
2018-04-04T08:10:40.301Z,4520.00
2018-04-04T08:11:40.438Z,4496.00
2018-04-04T08:12:40.573Z,4768.00
2018-04-04T08:13:40.712Z,4452.00
2018-04-04T08:14:40.848Z,3948.00
2018-04-04T08:15:40.994Z,3976.00
2018-04-04T08:16:41.133Z,3956.00
2018-04-04T08:17:41.280Z,4592.00
2018-04-04T08:18:41.418Z,4724.00
2018-04-04T08:19:41.560Z,4732.00
2018-04-04T08:20:41.699Z,4808.00
2018-04-04T08:21:41.839Z,4812.00
2018-04-04T08:22:41.983Z,4804.00
2018-04-04T08:23:42.121Z,4812.00
2018-04-04T08:24:42.259Z,4820.00
2018-04-04T08:25:42.398Z,4844.00
2018-04-04T08:26:42.580Z,4908.00
2018-04-04T08:27:42.758Z,4620.00
2018-04-04T08:28:42.853Z,4528.00
2018-04-04T08:29:42.987Z,5448.00
2018-04-04T08:30:43.147Z,5780.00
2018-04-04T08:31:43.285Z,6320.00
2018-04-04T08:32:43.450Z,7088.00
2018-04-04T08:33:43.581Z,7752.00
2018-04-04T08:34:43.734Z,8036.00
2018-04-04T08:35:43.865Z,8108.00
2018-04-04T08:36:44.019Z,8260.00
2018-04-04T08:37:44.153Z,8380.00
2018-04-04T08:38:44.292Z,7864.00
2018-04-04T08:39:44.433Z,7288.00
2018-04-04T08:40:44.597Z,7408.00
2018-04-04T08:41:44.719Z,7168.00
2018-04-04T08:42:44.861Z,7988.00
2018-04-04T08:43:45.002Z,7480.00
2018-04-04T08:44:45.174Z,6668.00
2018-04-04T08:45:45.284Z,6676.00
2018-04-04T08:46:45.425Z,6704.00
2018-04-04T08:47:45.566Z,7168.00
2018-04-04T08:48:45.705Z,7180.00
2018-04-04T08:49:45.849Z,6256.00
2018-04-04T08:50:45.978Z,5120.00
2018-04-04T08:51:46.128Z,4216.00
2018-04-04T08:52:46.265Z,3608.00
2018-04-04T08:53:46.405Z,3344.00
2018-04-04T08:54:46.542Z,3112.00
2018-04-04T08:55:46.684Z,3132.00
2018-04-04T08:56:46.827Z,3104.00
2018-04-04T08:57:46.963Z,3096.00
2018-04-04T08:58:47.109Z,3216.00
2018-04-04T08:59:47.250Z,3328.00
2018-04-04T09:00:47.388Z,2680.00
2018-04-04T09:01:47.525Z,3776.00
2018-04-04T09:02:47.686Z,4208.00
2018-04-04T09:03:47.813Z,4712.00
2018-04-04T09:04:47.953Z,5216.00
2018-04-04T09:05:48.090Z,5804.00
2018-04-04T09:06:48.253Z,6244.00
2018-04-04T09:07:48.388Z,6416.00
2018-04-04T09:08:48.513Z,6272.00
2018-04-04T09:09:48.660Z,5844.00
2018-04-04T09:10:48.837Z,5804.00
2018-04-04T09:11:48.977Z,6144.00
2018-04-04T09:12:49.124Z,5924.00
2018-04-04T09:13:49.261Z,5796.00
2018-04-04T09:14:49.420Z,5600.00
2018-04-04T09:15:49.593Z,5544.00
2018-04-04T09:16:49.731Z,5380.00
2018-04-04T09:17:49.868Z,4760.00
2018-04-04T09:18:50.024Z,3960.00
2018-04-04T09:19:50.159Z,3600.00
2018-04-04T09:20:50.300Z,3644.00
2018-04-04T09:21:50.437Z,4000.00
2018-04-04T09:22:50.591Z,4404.00
2018-04-04T09:23:50.725Z,4792.00
2018-04-04T09:24:50.872Z,5144.00
2018-04-04T09:25:51.006Z,5412.00
2018-04-04T09:26:51.162Z,5624.00
2018-04-04T09:27:51.299Z,5832.00
2018-04-04T09:28:51.440Z,6100.00
2018-04-04T09:29:51.585Z,6140.00
2018-04-04T09:30:51.751Z,5840.00
2018-04-04T09:31:51.885Z,5988.00
2018-04-04T09:32:52.022Z,5688.00
2018-04-04T09:33:52.187Z,5460.00
2018-04-04T09:34:52.337Z,5384.00
2018-04-04T09:35:52.471Z,5304.00
2018-04-04T09:36:52.610Z,5272.00
2018-04-04T09:37:52.761Z,5420.00
2018-04-04T09:38:52.968Z,5548.00
2018-04-04T09:39:52.964Z,5792.00
2018-04-04T09:40:53.107Z,6064.00
2018-04-04T09:41:53.270Z,6292.00
2018-04-04T09:42:53.414Z,6700.00
2018-04-04T09:43:53.556Z,7308.00
2018-04-04T09:44:53.700Z,7612.00
2018-04-04T09:45:53.860Z,7692.00
2018-04-04T09:46:54.099Z,7568.00
2018-04-04T09:47:54.108Z,7600.00
2018-04-04T09:48:54.252Z,7376.00
2018-04-04T09:49:54.392Z,6876.00
2018-04-04T09:50:54.533Z,6480.00
2018-04-04T09:51:54.668Z,6120.00
2018-04-04T09:52:54.812Z,5972.00
2018-04-04T09:53:54.955Z,5856.00
2018-04-04T09:54:55.091Z,5928.00
2018-04-04T09:55:55.233Z,5924.00
2018-04-04T09:56:55.367Z,6096.00
2018-04-04T09:57:55.509Z,6520.00
2018-04-04T09:58:55.649Z,6932.00
2018-04-04T09:59:55.787Z,7188.00
2018-04-04T10:00:55.928Z,7232.00
2018-04-04T10:01:56.062Z,7344.00
2018-04-04T10:02:56.201Z,7612.00
2018-04-04T10:03:56.345Z,8176.00
2018-04-04T10:04:56.486Z,8564.00
2018-04-04T10:05:56.623Z,9160.00
2018-04-04T10:06:56.761Z,9972.00
2018-04-04T10:07:56.909Z,10584.00
2018-04-04T10:08:57.054Z,10808.00
2018-04-04T10:09:57.184Z,10540.00
2018-04-04T10:10:57.334Z,10376.00
2018-04-04T10:11:57.472Z,11072.00
2018-04-04T10:12:57.608Z,12076.00
2018-04-04T10:13:57.746Z,13004.00
2018-04-04T10:14:57.880Z,13344.00
2018-04-04T10:15:58.016Z,13644.00
2018-04-04T10:16:58.157Z,14948.00
2018-04-04T10:17:58.376Z,14628.00
2018-04-04T10:18:58.424Z,14272.00
2018-04-04T10:19:58.622Z,13884.00
2018-04-04T10:20:58.629Z,12144.00
2018-04-04T10:21:58.771Z,13012.00
2018-04-04T10:22:58.915Z,15240.00
2018-04-04T10:23:59.050Z,15888.00
2018-04-04T10:24:59.198Z,14260.00
2018-04-04T10:25:59.335Z,15764.00
2018-04-04T10:26:59.533Z,15252.00
2018-04-04T10:27:59.692Z,14580.00
2018-04-04T10:28:59.830Z,14808.00
2018-04-04T10:29:59.964Z,15676.00
2018-04-04T10:31:00.127Z,16508.00
2018-04-04T10:32:00.262Z,16012.00
2018-04-04T10:33:00.402Z,16028.00
2018-04-04T10:34:00.543Z,16660.00
2018-04-04T10:35:01.253Z,17504.00
2018-04-04T10:36:00.756Z,18144.00
2018-04-04T10:37:00.899Z,18848.00
2018-04-04T10:38:01.047Z,18656.00
2018-04-04T10:39:01.218Z,17728.00
2018-04-04T10:40:01.422Z,16444.00
2018-04-04T10:41:02.104Z,17728.00
2018-04-04T10:42:01.789Z,17728.00
2018-04-04T10:43:01.926Z,8956.00
2018-04-04T10:44:02.074Z,8204.00
2018-04-04T10:45:02.211Z,7456.00
2018-04-04T10:46:02.363Z,7988.00
2018-04-04T10:47:02.501Z,8044.00
2018-04-04T10:48:02.635Z,7372.00
2018-04-04T10:49:02.783Z,7320.00
2018-04-04T10:50:02.972Z,7300.00
2018-04-04T10:51:03.082Z,7344.00
2018-04-04T10:52:03.230Z,9016.00
2018-04-04T10:53:03.370Z,14760.00
2018-04-04T10:54:03.523Z,10876.00
2018-04-04T10:55:03.666Z,7744.00
2018-04-04T10:56:03.813Z,6996.00
2018-04-04T10:57:03.954Z,9716.00
2018-04-04T10:58:04.125Z,6184.00
2018-04-04T10:59:04.260Z,5816.00
2018-04-04T11:00:04.401Z,5800.00
2018-04-04T11:01:04.544Z,5884.00
2018-04-04T11:02:04.699Z,6032.00
2018-04-04T11:03:04.839Z,6172.00
2018-04-04T11:04:04.983Z,6236.00
2018-04-04T11:05:05.122Z,6248.00
2018-04-04T11:06:05.268Z,6356.00
2018-04-04T11:07:05.474Z,6396.00
2018-04-04T11:08:05.560Z,6520.00
2018-04-04T11:09:05.700Z,6816.00
2018-04-04T11:10:08.006Z,7040.00
2018-04-04T11:11:11.288Z,7260.00
2018-04-04T11:12:21.355Z,7656.00
2018-04-04T11:13:06.297Z,8408.00
2018-04-04T11:14:06.432Z,9392.00
2018-04-04T11:15:06.597Z,10508.00
2018-04-04T11:16:06.726Z,11400.00
2018-04-04T11:17:06.891Z,15760.00
2018-04-04T11:18:07.029Z,14652.00
2018-04-04T11:19:07.168Z,17536.00
2018-04-04T11:20:07.308Z,19616.00
2018-04-04T11:21:08.417Z,14860.00
2018-04-04T11:22:07.557Z,13612.00
2018-04-04T11:23:07.721Z,14400.00
2018-04-04T11:24:07.858Z,15332.00
2018-04-04T11:25:07.992Z,21920.00
2018-04-04T11:26:08.124Z,57920.00
2018-04-04T11:27:08.268Z,57792.00
2018-04-04T11:28:08.417Z,50848.00
2018-04-04T11:29:08.557Z,96448.00
2018-04-04T11:30:08.693Z,63776.00
2018-04-04T11:31:08.837Z,49984.00
2018-04-04T11:32:08.979Z,51136.00
2018-04-04T11:33:09.129Z,38240.00
2018-04-04T11:34:09.268Z,16196.00
2018-04-04T11:35:09.404Z,15504.00
2018-04-04T11:36:09.550Z,21472.00
2018-04-04T11:37:09.688Z,37984.00
2018-04-04T11:38:09.835Z,41504.00
2018-04-04T11:39:09.973Z,45632.00
2018-04-04T11:40:10.117Z,60000.00
2018-04-04T11:41:10.257Z,78432.00
2018-04-04T11:42:10.403Z,64864.00
2018-04-04T11:43:10.547Z,70720.00
2018-04-04T11:44:10.688Z,71424.00
2018-04-04T11:45:10.849Z,70144.00
2018-04-04T11:46:11.140Z,69024.00
2018-04-04T11:47:11.156Z,72224.00
2018-04-04T11:48:11.300Z,86208.00
2018-04-04T11:49:11.449Z,92864.00
2018-04-04T11:50:21.451Z,95424.00
2018-04-04T11:51:11.714Z,92672.00
2018-04-04T11:52:11.859Z,94624.00
2018-04-04T11:53:12.012Z,95648.00
2018-04-04T11:54:12.180Z,31424.00
2018-04-04T11:55:12.336Z,50240.00
2018-04-04T11:56:12.486Z,55744.00
2018-04-04T11:57:12.635Z,34848.00
2018-04-04T11:58:12.803Z,24192.00
2018-04-04T11:59:12.957Z,15528.00
2018-04-04T12:00:13.102Z,89856.00
2018-04-04T12:01:13.254Z,49184.00
2018-04-04T12:02:13.405Z,91488.00
2018-04-04T12:03:13.543Z,85056.00
2018-04-04T12:04:14.565Z,84736.00
2018-04-04T12:05:13.865Z,79680.00
2018-04-04T12:06:14.010Z,95392.00
2018-04-04T12:07:14.194Z,61088.00
2018-04-04T12:08:14.345Z,70208.00
2018-04-04T12:09:14.500Z,41792.00
2018-04-04T12:10:14.649Z,19232.00
2018-04-04T12:11:14.820Z,68896.00
2018-04-04T12:12:14.958Z,41792.00
2018-04-04T12:13:15.101Z,58336.00
2018-04-04T12:14:15.255Z,67520.00
2018-04-04T12:15:15.415Z,83104.00
2018-04-04T12:16:15.560Z,80608.00
2018-04-04T12:17:15.721Z,70144.00
2018-04-04T12:18:15.863Z,51232.00
2018-04-04T12:19:16.024Z,75168.00
2018-04-04T12:20:16.178Z,78400.00
2018-04-04T12:21:16.331Z,87200.00
2018-04-04T12:22:16.493Z,70176.00
2018-04-04T12:23:16.626Z,81792.00
2018-04-04T12:24:16.775Z,77920.00
2018-04-04T12:25:16.922Z,81504.00
2018-04-04T12:26:17.082Z,80480.00
2018-04-04T12:27:17.230Z,87072.00
2018-04-04T12:28:17.383Z,85440.00
2018-04-04T12:29:17.548Z,93920.00
2018-04-04T12:30:17.691Z,91392.00
2018-04-04T12:31:17.836Z,87104.00
2018-04-04T12:32:17.987Z,79072.00
2018-04-04T12:33:18.144Z,82016.00